Time;durP1;ratioP1;P1;durP2;ratioP2;P2;SDS_P1;SDS_P2;PMS_P1;PMS_P2;Temp;Humidity;BMP_temperature;BMP_pressure;BME280_temperature;BME280_humidity;BME280_pressure;Samples;Min_cycle;Max_cycle;Signal;HPM_P1;HPM_P2
2023/03/21 00:01:28;;;;;;;7.70;4.10;;;10.70;1.00;;;;;;5049737;28;20331;-74
2023/03/21 00:03:54;;;;;;;7.10;4.03;;;10.70;1.00;;;;;;5049190;28;20606;-73
2023/03/21 00:06:20;;;;;;;8.50;3.97;;;10.60;1.00;;;;;;5046466;28;20184;-74
2023/03/21 00:08:45;;;;;;;8.20;3.90;;;10.70;1.00;;;;;;5046994;28;20698;-74
2023/03/21 00:11:11;;;;;;;5.20;3.80;;;10.70;1.00;;;;;;5049606;28;20435;-74
2023/03/21 00:13:41;;;;;;;7.10;4.23;;;10.70;1.00;;;;;;5051361;28;20477;-74
2023/03/21 00:16:09;;;;;;;6.87;4.27;;;10.80;1.00;;;;;;5050300;28;20177;-74
2023/03/21 00:18:35;;;;;;;6.47;3.60;;;10.80;1.00;;;;;;5050688;28;20474;-74
2023/03/21 00:21:04;;;;;;;5.13;3.70;;;10.90;1.00;;;;;;5048614;28;21028;-74
2023/03/21 00:23:32;;;;;;;8.60;3.83;;;10.90;1.00;;;;;;5049056;28;20455;-74
2023/03/21 00:25:58;;;;;;;6.60;3.80;;;10.90;1.00;;;;;;5050600;28;20462;-76
2023/03/21 00:28:24;;;;;;;7.03;3.67;;;10.80;1.00;;;;;;5044914;28;20536;-75
2023/03/21 00:30:50;;;;;;;9.37;4.13;;;10.80;1.00;;;;;;5047396;28;20527;-75
2023/03/21 00:33:20;;;;;;;5.57;3.73;;;10.80;1.00;;;;;;5049616;28;20531;-74
2023/03/21 00:35:49;;;;;;;6.50;3.80;;;10.80;1.00;;;;;;5050706;28;20178;-74
2023/03/21 00:38:14;;;;;;;7.07;4.27;;;10.80;1.00;;;;;;5049432;28;20451;-75
2023/03/21 00:40:40;;;;;;;6.33;3.97;;;10.80;1.00;;;;;;5049454;28;21026;-74
2023/03/21 00:43:05;;;;;;;9.13;4.40;;;10.80;1.00;;;;;;5050504;28;20185;-74
2023/03/21 00:45:31;;;;;;;7.87;4.37;;;10.80;1.00;;;;;;5048672;28;20196;-74
2023/03/21 00:47:57;;;;;;;6.83;4.20;;;10.90;1.00;;;;;;5050432;28;20224;-76
2023/03/21 00:50:23;;;;;;;7.07;4.50;;;10.90;1.00;;;;;;5047125;28;20235;-75
2023/03/21 00:52:48;;;;;;;7.17;4.20;;;10.90;1.00;;;;;;5048695;28;20475;-75
2023/03/21 00:55:16;;;;;;;7.73;4.47;;;10.90;1.00;;;;;;5050289;28;20460;-74
2023/03/21 00:57:42;;;;;;;5.60;4.00;;;10.90;1.00;;;;;;5047308;28;20217;-75
2023/03/21 01:00:10;;;;;;;6.13;3.80;;;10.80;1.00;;;;;;5049142;28;20505;-75
2023/03/21 01:02:37;;;;;;;6.90;4.50;;;10.80;1.00;;;;;;5048760;28;20444;-74
2023/03/21 01:05:04;;;;;;;6.97;4.30;;;10.70;1.00;;;;;;5049892;28;20428;-74
2023/03/21 01:07:29;;;;;;;8.50;4.50;;;10.60;1.00;;;;;;5049262;28;20455;-74
2023/03/21 01:09:55;;;;;;;9.27;4.33;;;10.70;1.00;;;;;;5048717;28;20810;-74
2023/03/21 01:12:20;;;;;;;6.20;4.10;;;10.70;1.00;;;;;;5048696;28;20196;-75
2023/03/21 01:14:46;;;;;;;6.10;4.47;;;10.70;1.00;;;;;;5048657;28;20238;-76
2023/03/21 01:17:12;;;;;;;7.60;4.20;;;10.70;1.00;;;;;;5048998;28;20196;-73
2023/03/21 01:19:37;;;;;;;9.80;4.67;;;10.70;1.00;;;;;;5045945;28;20635;-73
2023/03/21 01:22:03;;;;;;;9.53;4.43;;;10.70;1.00;;;;;;5048217;28;20189;-74
2023/03/21 01:24:28;;;;;;;6.83;4.80;;;10.70;1.00;;;;;;5049684;28;20671;-73
2023/03/21 01:26:54;;;;;;;10.13;4.93;;;10.70;1.00;;;;;;5048785;28;20212;-75
2023/03/21 01:29:19;;;;;;;5.60;3.90;;;10.70;1.00;;;;;;5046685;28;20223;-74
2023/03/21 01:31:45;;;;;;;7.23;4.60;;;10.80;1.00;;;;;;5048068;28;20185;-74
2023/03/21 01:34:11;;;;;;;6.90;4.37;;;10.70;1.00;;;;;;5048195;28;20181;-74
2023/03/21 01:36:36;;;;;;;9.23;4.00;;;10.70;1.00;;;;;;5048633;28;20732;-73
2023/03/21 01:39:02;;;;;;;6.37;4.00;;;10.70;1.00;;;;;;5046194;28;20211;-73
2023/03/21 01:41:34;;;;;;;5.30;4.20;;;10.70;1.00;;;;;;5042999;28;20180;-74
2023/03/21 01:44:00;;;;;;;7.50;4.50;;;10.70;1.00;;;;;;5049037;28;20856;-74
2023/03/21 01:46:48;;;;;;;9.50;4.40;;;10.70;1.00;;;;;;5049023;28;20420;-75
2023/03/21 01:49:34;;;;;;;8.13;4.17;;;10.70;1.00;;;;;;5045829;28;20205;-74
2023/03/21 01:52:06;;;;;;;6.17;4.30;;;10.60;1.00;;;;;;5045772;28;20431;-74
2023/03/21 01:54:36;;;;;;;8.93;5.03;;;10.60;1.00;;;;;;5048572;28;20442;-74
2023/03/21 01:57:07;;;;;;;13.33;4.70;;;10.60;1.00;;;;;;5049584;28;20407;-74
2023/03/21 01:59:39;;;;;;;6.47;4.73;;;10.60;1.00;;;;;;5047905;28;20451;-73
2023/03/21 02:02:08;;;;;;;8.10;4.90;;;10.60;1.00;;;;;;5047990;28;20485;-74
2023/03/21 02:04:37;;;;;;;7.60;4.50;;;10.60;1.00;;;;;;5048462;28;20435;-73
2023/03/21 02:07:16;;;;;;;7.80;4.70;;;10.70;1.00;;;;;;5049157;28;20941;-75
2023/03/21 02:09:46;;;;;;;5.70;4.20;;;10.70;1.00;;;;;;5041174;28;20524;-74
2023/03/21 02:12:11;;;;;;;6.90;4.37;;;10.60;1.00;;;;;;5048839;28;20602;-74
2023/03/21 02:14:38;;;;;;;8.60;4.97;;;10.60;1.00;;;;;;5045604;28;20505;-75
2023/03/21 02:17:03;;;;;;;9.17;5.00;;;10.60;1.00;;;;;;5048464;28;20200;-76
2023/03/21 02:19:41;;;;;;;7.47;4.97;;;10.60;1.00;;;;;;5046923;28;20440;-73
2023/03/21 02:22:32;;;;;;;6.20;4.20;;;10.50;1.00;;;;;;5048066;28;20191;-73
2023/03/21 02:25:30;;;;;;;7.63;4.90;;;10.50;1.00;;;;;;5048998;28;21003;-75
2023/03/21 02:28:01;;;;;;;6.67;4.60;;;10.50;1.00;;;;;;5043434;28;20985;-73
2023/03/21 02:31:05;;;;;;;10.40;4.90;;;10.60;1.00;;;;;;5042151;28;20534;-74
2023/03/21 02:34:06;;;;;;;8.23;5.50;;;10.60;1.00;;;;;;5048296;28;20415;-74
2023/03/21 02:36:51;;;;;;;5.43;4.43;;;10.60;1.00;;;;;;5023812;28;20439;-74
2023/03/21 02:39:47;;;;;;;8.67;4.90;;;10.50;1.00;;;;;;5047032;28;20837;-74
2023/03/21 02:42:26;;;;;;;6.70;5.10;;;10.60;1.00;;;;;;5048477;28;20442;-74
2023/03/21 02:45:00;;;;;;;8.07;5.30;;;10.60;1.00;;;;;;5047561;28;20427;-74
2023/03/21 02:47:51;;;;;;;8.30;5.03;;;10.60;1.00;;;;;;5045496;28;20554;-74
2023/03/21 02:50:29;;;;;;;8.47;5.30;;;10.60;1.00;;;;;;5047011;28;20463;-76
2023/03/21 02:52:55;;;;;;;6.00;5.00;;;10.50;1.00;;;;;;5046147;28;20438;-74
2023/03/21 02:55:24;;;;;;;12.57;5.40;;;10.50;1.00;;;;;;5047284;28;20530;-74
2023/03/21 02:57:53;;;;;;;9.10;5.70;;;10.50;1.00;;;;;;5047729;28;20471;-75
2023/03/21 03:00:29;;;;;;;8.00;5.30;;;10.50;1.00;;;;;;5048212;28;20514;-74
2023/03/21 03:02:55;;;;;;;9.40;5.50;;;10.40;1.00;;;;;;5042366;28;20497;-74
2023/03/21 03:05:26;;;;;;;10.10;5.60;;;10.40;1.00;;;;;;5047249;28;20802;-74
2023/03/21 03:08:29;;;;;;;16.17;8.87;;;10.40;1.00;;;;;;5047899;28;20683;-74
2023/03/21 03:11:10;;;;;;;17.53;7.87;;;10.40;1.00;;;;;;5045403;28;20549;-75
2023/03/21 03:14:08;;;;;;;12.40;6.73;;;10.40;1.00;;;;;;5047840;28;20428;-74
2023/03/21 03:16:43;;;;;;;9.63;6.20;;;10.40;1.00;;;;;;5039553;28;20851;-75
2023/03/21 03:19:13;;;;;;;10.77;6.17;;;10.40;1.00;;;;;;5047168;28;21051;-74
2023/03/21 03:21:46;;;;;;;8.93;5.50;;;10.40;1.00;;;;;;5046508;28;20509;-74
2023/03/21 03:24:22;;;;;;;6.47;5.33;;;10.30;1.00;;;;;;5045027;28;20444;-74
2023/03/21 03:26:59;;;;;;;10.00;5.53;;;10.30;1.00;;;;;;5047251;28;20936;-74
2023/03/21 03:29:27;;;;;;;6.90;5.83;;;10.30;1.00;;;;;;5047005;28;20524;-74
2023/03/21 03:32:00;;;;;;;8.40;5.70;;;10.30;1.00;;;;;;5047099;28;20496;-75
2023/03/21 03:34:33;;;;;;;11.20;5.63;;;10.30;1.00;;;;;;5047115;28;20844;-74
2023/03/21 03:37:03;;;;;;;10.83;5.97;;;10.40;1.00;;;;;;5047812;28;20423;-74
2023/03/21 03:40:09;;;;;;;13.57;5.90;;;10.40;1.00;;;;;;5045517;28;20454;-73
2023/03/21 03:42:47;;;;;;;6.37;5.27;;;10.50;1.00;;;;;;5039316;28;20443;-75
2023/03/21 03:45:12;;;;;;;12.53;5.37;;;10.50;1.00;;;;;;5048539;28;20434;-74
2023/03/21 03:48:00;;;;;;;6.90;5.40;;;10.50;1.00;;;;;;5044413;28;20949;-74
2023/03/21 03:50:41;;;;;;;8.37;6.07;;;10.50;1.00;;;;;;5049172;28;20192;-74
2023/03/21 03:53:24;;;;;;;9.30;5.60;;;10.50;1.00;;;;;;5049459;28;20831;-74
2023/03/21 03:55:51;;;;;;;10.47;6.53;;;10.40;1.00;;;;;;5055598;28;20434;-74
2023/03/21 03:58:18;;;;;;;10.30;6.17;;;10.40;1.00;;;;;;5049732;28;20481;-75
2023/03/21 04:00:45;;;;;;;12.20;6.60;;;10.40;1.00;;;;;;5051318;28;20438;-74
2023/03/21 04:03:10;;;;;;;9.33;6.60;;;10.40;1.00;;;;;;5049102;28;20439;-71
2023/03/21 04:05:36;;;;;;;9.03;6.10;;;10.30;1.00;;;;;;5050395;28;20746;-74
2023/03/21 04:08:01;;;;;;;11.37;6.70;;;10.40;1.00;;;;;;5051059;28;20263;-75
2023/03/21 04:10:27;;;;;;;15.47;6.23;;;10.40;1.00;;;;;;5047847;28;20267;-74
2023/03/21 04:12:52;;;;;;;10.63;6.43;;;10.40;1.00;;;;;;5051051;28;20200;-74
2023/03/21 04:15:19;;;;;;;12.57;7.00;;;10.50;1.00;;;;;;5048781;28;20185;-72
2023/03/21 04:17:45;;;;;;;11.90;7.57;;;10.50;1.00;;;;;;5050477;28;20205;-74
2023/03/21 04:20:10;;;;;;;9.33;6.23;;;10.40;1.00;;;;;;5049239;28;20513;-73
2023/03/21 04:22:36;;;;;;;7.63;6.23;;;10.40;1.00;;;;;;5050299;28;20188;-73
2023/03/21 04:25:04;;;;;;;9.73;6.60;;;10.30;1.00;;;;;;5051049;28;20181;-74
2023/03/21 04:27:31;;;;;;;14.80;7.20;;;10.30;1.00;;;;;;5049677;28;20459;-74
2023/03/21 04:29:56;;;;;;;10.60;6.73;;;10.40;1.00;;;;;;5044531;28;20486;-74
2023/03/21 04:32:25;;;;;;;13.40;7.10;;;10.30;1.00;;;;;;5049805;28;20850;-75
2023/03/21 04:34:52;;;;;;;18.33;7.90;;;10.30;1.00;;;;;;5049900;28;20174;-75
2023/03/21 04:37:20;;;;;;;16.30;8.90;;;10.30;1.00;;;;;;5049368;28;20546;-77
2023/03/21 04:39:46;;;;;;;16.50;9.47;;;10.30;1.00;;;;;;5048932;28;20949;-74
2023/03/21 04:42:13;;;;;;;13.57;8.90;;;10.30;1.00;;;;;;5048703;28;20504;-74
2023/03/21 04:44:39;;;;;;;16.57;9.67;;;10.30;1.00;;;;;;5050825;28;20466;-73
2023/03/21 04:47:05;;;;;;;18.87;10.70;;;10.20;1.00;;;;;;5049574;28;20518;-74
2023/03/21 04:49:30;;;;;;;16.70;10.33;;;10.10;1.00;;;;;;5047609;28;20550;-75
2023/03/21 04:51:56;;;;;;;14.97;9.07;;;10.10;1.00;;;;;;5048527;28;20190;-74
2023/03/21 04:54:22;;;;;;;15.33;8.67;;;10.10;1.00;;;;;;5050351;28;20228;-75
2023/03/21 04:56:47;;;;;;;10.50;7.30;;;10.10;1.00;;;;;;5048849;28;20173;-74
2023/03/21 04:59:14;;;;;;;10.13;7.00;;;10.10;1.00;;;;;;5049312;28;20651;-74
2023/03/21 05:01:42;;;;;;;15.70;6.60;;;10.10;1.00;;;;;;5048085;28;20199;-74
2023/03/21 05:04:08;;;;;;;8.50;6.53;;;10.10;1.00;;;;;;5047010;28;20501;-74
2023/03/21 05:06:35;;;;;;;8.13;5.40;;;10.10;1.00;;;;;;5049773;28;20849;-74
2023/03/21 05:09:04;;;;;;;8.53;5.93;;;10.10;1.00;;;;;;5047666;28;20471;-74
2023/03/21 05:11:30;;;;;;;11.03;6.03;;;10.10;1.00;;;;;;5049424;28;20450;-74
2023/03/21 05:13:57;;;;;;;12.33;6.17;;;10.10;1.00;;;;;;5049028;28;20679;-74
2023/03/21 05:16:25;;;;;;;8.73;6.20;;;10.10;1.00;;;;;;5049376;28;20423;-73
2023/03/21 05:18:53;;;;;;;11.23;6.30;;;10.10;1.00;;;;;;5048051;28;20965;-74
2023/03/21 05:21:20;;;;;;;7.87;5.90;;;10.10;1.00;;;;;;5049768;28;20486;-75
2023/03/21 05:23:52;;;;;;;8.80;6.53;;;10.10;1.00;;;;;;5047718;28;20443;-74
2023/03/21 05:26:18;;;;;;;9.23;5.90;;;10.10;1.00;;;;;;5049316;28;20935;-74
2023/03/21 05:28:46;;;;;;;7.90;6.10;;;10.10;1.00;;;;;;5046129;28;20467;-74
2023/03/21 05:31:15;;;;;;;16.57;10.47;;;10.00;1.00;;;;;;5042694;28;20434;-73
2023/03/21 05:33:41;;;;;;;17.63;12.23;;;10.00;1.00;;;;;;5049689;28;20438;-76
2023/03/21 05:36:07;;;;;;;12.83;8.80;;;10.00;1.00;;;;;;5047548;28;20435;-74
2023/03/21 05:38:33;;;;;;;20.50;14.00;;;10.00;1.00;;;;;;5049363;28;20678;-75
2023/03/21 05:40:59;;;;;;;18.00;11.67;;;10.00;1.00;;;;;;5047344;28;20440;-74
2023/03/21 05:43:24;;;;;;;17.40;11.20;;;10.00;1.00;;;;;;5049161;28;20654;-74
2023/03/21 05:45:50;;;;;;;16.80;9.80;;;10.00;1.00;;;;;;5047958;28;20462;-74
2023/03/21 05:48:15;;;;;;;14.93;9.90;;;10.00;1.00;;;;;;5045088;28;20239;-71
2023/03/21 05:50:41;;;;;;;13.00;9.00;;;9.90;1.00;;;;;;5048833;28;20197;-73
2023/03/21 05:53:07;;;;;;;12.57;7.00;;;10.00;1.00;;;;;;5048234;28;20247;-73
2023/03/21 05:55:32;;;;;;;10.50;6.70;;;9.50;1.00;;;;;;5047175;28;20180;-75
2023/03/21 05:57:58;;;;;;;13.27;6.70;;;10.00;1.00;;;;;;5048730;28;20653;-73
2023/03/21 06:00:24;;;;;;;8.57;6.53;;;10.00;1.00;;;;;;5047664;28;20185;-73
2023/03/21 06:02:49;;;;;;;11.40;6.70;;;10.00;1.00;;;;;;5049234;28;20200;-73
2023/03/21 06:05:15;;;;;;;7.97;5.80;;;10.10;1.00;;;;;;5048404;28;20731;-74
2023/03/21 06:07:40;;;;;;;6.70;5.67;;;10.10;1.00;;;;;;5048799;28;20205;-74
2023/03/21 06:10:06;;;;;;;9.33;7.00;;;10.10;1.00;;;;;;5046511;28;20191;-74
2023/03/21 06:12:32;;;;;;;7.60;6.10;;;10.20;1.00;;;;;;5046946;28;20207;-73
2023/03/21 06:14:58;;;;;;;11.23;6.60;;;10.30;1.00;;;;;;5051428;28;20211;-74
2023/03/21 06:17:24;;;;;;;10.37;6.80;;;10.50;1.00;;;;;;5046967;28;20524;-73
2023/03/21 06:19:49;;;;;;;9.90;6.40;;;10.60;1.00;;;;;;5091506;22;20496;-74
2023/03/21 06:22:15;;;;;;;14.20;8.87;;;10.70;1.00;;;;;;5028119;28;20233;-74
2023/03/21 06:24:40;;;;;;;13.53;9.73;;;10.80;1.00;;;;;;5028673;28;20664;-74
2023/03/21 06:27:06;;;;;;;14.33;8.50;;;11.00;1.00;;;;;;5026170;28;20564;-74
2023/03/21 06:29:31;;;;;;;11.87;8.10;;;11.30;1.00;;;;;;5017050;28;20693;-74
2023/03/21 06:31:57;;;;;;;12.93;7.80;;;11.60;1.00;;;;;;5020899;28;20178;-71
2023/03/21 06:34:23;;;;;;;9.47;6.73;;;11.90;1.00;;;;;;5022045;28;20177;-74
2023/03/21 06:36:50;;;;;;;12.37;7.57;;;12.10;1.00;;;;;;5021538;28;20185;-74
2023/03/21 06:39:16;;;;;;;11.40;7.40;;;12.20;1.00;;;;;;5024498;28;20198;-74
2023/03/21 06:41:42;;;;;;;11.13;7.43;;;12.20;1.00;;;;;;5027983;28;20428;-75
2023/03/21 06:44:08;;;;;;;9.20;5.83;;;12.10;1.00;;;;;;5028929;28;20193;-75
2023/03/21 06:46:33;;;;;;;10.40;6.50;;;12.10;1.00;;;;;;5027640;28;20923;-74
2023/03/21 06:48:59;;;;;;;10.57;5.80;;;12.10;1.00;;;;;;5022817;28;20266;-74
2023/03/21 06:51:25;;;;;;;7.90;6.40;;;12.00;1.00;;;;;;5027934;28;20182;-75
2023/03/21 06:53:50;;;;;;;8.57;6.80;;;12.00;1.00;;;;;;5026862;28;20189;-74
2023/03/21 06:56:16;;;;;;;9.00;6.00;;;12.00;1.00;;;;;;5033017;28;20184;-74
2023/03/21 06:58:42;;;;;;;6.90;5.70;;;12.50;1.00;;;;;;5029618;28;20193;-75
2023/03/21 07:01:08;;;;;;;8.03;6.17;;;12.60;1.00;;;;;;5026358;28;20195;-74
2023/03/21 07:03:33;;;;;;;9.77;5.77;;;12.70;1.00;;;;;;5026915;28;20542;-74
2023/03/21 07:06:10;;;;;;;6.77;5.53;;;12.80;1.00;;;;;;5025778;28;20439;-74
2023/03/21 07:08:36;;;;;;;8.03;5.60;;;12.80;1.00;;;;;;5024741;28;20213;-74
2023/03/21 07:11:02;;;;;;;9.80;5.80;;;12.70;1.00;;;;;;5022660;28;20452;-74
2023/03/21 07:13:27;;;;;;;9.60;5.97;;;12.90;1.00;;;;;;5027903;28;20817;-75
2023/03/21 07:15:53;;;;;;;9.20;5.70;;;12.50;1.00;;;;;;5027454;28;20268;-75
2023/03/21 07:18:19;;;;;;;7.27;6.07;;;12.60;1.00;;;;;;5027096;28;20184;-74
2023/03/21 07:20:49;;;;;;;12.47;5.77;;;12.70;1.00;;;;;;5029862;28;20206;-75
2023/03/21 07:23:20;;;;;;;9.30;5.40;;;12.80;1.00;;;;;;5031812;28;20186;-75
2023/03/21 07:25:47;;;;;;;10.03;5.70;;;12.90;1.00;;;;;;5029747;28;20494;-75
2023/03/21 07:28:14;;;;;;;6.90;5.60;;;12.80;1.00;;;;;;5030108;28;20540;-75
2023/03/21 07:30:40;;;;;;;7.40;5.73;;;12.90;1.00;;;;;;5021843;28;20228;-72
2023/03/21 07:33:06;;;;;;;10.27;6.30;;;13.10;1.00;;;;;;5021032;28;20448;-75
2023/03/21 07:35:33;;;;;;;10.43;5.97;;;13.00;1.00;;;;;;5026743;28;20178;-72
2023/03/21 07:37:58;;;;;;;8.20;5.90;;;13.10;1.00;;;;;;5032112;28;20440;-75
2023/03/21 07:40:24;;;;;;;7.37;5.60;;;12.50;1.00;;;;;;5031691;28;20459;-73
2023/03/21 07:42:49;;;;;;;10.00;5.60;;;12.90;1.00;;;;;;5037046;28;20259;-76
2023/03/21 07:45:19;;;;;;;11.00;6.13;;;13.00;1.00;;;;;;5033200;28;20567;-72
2023/03/21 07:47:45;;;;;;;11.33;5.20;;;13.10;1.00;;;;;;5035989;28;20174;-75
2023/03/21 07:50:11;;;;;;;7.10;5.37;;;13.40;1.00;;;;;;5037502;28;20514;-74
2023/03/21 07:52:37;;;;;;;9.77;6.10;;;13.80;1.00;;;;;;5029654;28;20440;-73
2023/03/21 07:55:03;;;;;;;9.03;5.77;;;14.10;1.00;;;;;;5035252;28;20177;-73
2023/03/21 07:57:29;;;;;;;8.07;5.90;;;;;;;;;;5034529;28;20193;-73
2023/03/21 07:59:55;;;;;;;12.33;5.80;;;14.20;1.00;;;;;;5032624;28;20464;-76
2023/03/21 08:02:20;;;;;;;9.70;6.00;;;14.30;1.00;;;;;;5034238;28;20455;-75
2023/03/21 08:04:46;;;;;;;10.80;5.83;;;14.10;1.00;;;;;;5031013;28;20178;-75
2023/03/21 08:07:12;;;;;;;8.20;5.80;;;14.00;1.00;;;;;;5032755;28;20260;-75
2023/03/21 08:09:37;;;;;;;7.87;5.63;;;14.20;1.00;;;;;;5032109;28;20627;-75
2023/03/21 08:12:04;;;;;;;8.57;5.37;;;14.30;1.00;;;;;;5034030;28;20432;-75
2023/03/21 08:14:30;;;;;;;6.33;4.90;;;14.70;1.00;;;;;;5034337;28;20177;-73
2023/03/21 08:16:55;;;;;;;6.70;5.53;;;15.40;1.00;;;;;;5033646;28;20443;-73
2023/03/21 08:19:21;;;;;;;7.00;5.37;;;15.90;1.00;;;;;;5035083;28;20217;-73
2023/03/21 08:21:48;;;;;;;8.13;5.50;;;16.40;1.00;;;;;;5032927;28;20185;-73
2023/03/21 08:24:14;;;;;;;10.00;5.90;;;16.50;1.00;;;;;;5036609;28;20609;-73
2023/03/21 08:26:40;;;;;;;6.50;5.90;;;16.40;1.00;;;;;;5032918;28;20456;-73
2023/03/21 08:29:06;;;;;;;7.70;6.10;;;16.60;1.00;;;;;;5031482;28;20464;-72
2023/03/21 08:31:31;;;;;;;7.20;5.93;;;17.10;1.00;;;;;;5031510;28;20448;-76
2023/03/21 08:33:57;;;;;;;7.77;6.50;;;17.60;1.00;;;;;;5034903;28;20200;-75
2023/03/21 08:36:23;;;;;;;10.20;6.30;;;17.40;1.00;;;;;;5034811;28;20181;-75
2023/03/21 08:38:53;;;;;;;10.13;6.60;;;17.70;1.00;;;;;;5033407;28;20205;-76
2023/03/21 08:41:20;;;;;;;9.87;6.70;;;17.90;1.00;;;;;;5033270;28;20441;-75
2023/03/21 08:43:47;;;;;;;10.20;6.87;;;17.90;1.00;;;;;;5034198;28;20428;-73
2023/03/21 08:46:12;;;;;;;10.73;6.43;;;18.30;1.00;;;;;;5029596;28;20432;-75
2023/03/21 08:48:38;;;;;;;8.13;6.13;;;18.60;1.00;;;;;;5032240;28;20477;-75
2023/03/21 08:51:04;;;;;;;11.47;6.07;;;18.70;1.00;;;;;;5031762;28;20195;-75
2023/03/21 08:53:31;;;;;;;6.73;6.03;;;18.40;1.00;;;;;;5033113;28;20238;-76
2023/03/21 08:55:56;;;;;;;10.93;6.53;;;18.20;1.00;;;;;;5034607;28;20866;-76
2023/03/21 08:58:22;;;;;;;10.97;6.47;;;18.10;1.00;;;;;;5034126;28;20564;-75
2023/03/21 09:00:47;;;;;;;9.80;6.50;;;18.00;1.00;;;;;;5032549;28;20331;-76
2023/03/21 09:03:13;;;;;;;9.57;6.27;;;18.20;1.00;;;;;;5032817;28;20185;-76
2023/03/21 09:05:38;;;;;;;7.90;6.10;;;18.10;1.00;;;;;;5030982;28;20247;-75
2023/03/21 09:08:04;;;;;;;8.70;5.77;;;18.40;1.00;;;;;;5032259;28;20174;-75
2023/03/21 09:10:30;;;;;;;7.37;5.43;;;18.80;1.00;;;;;;5030969;28;20198;-75
2023/03/21 09:12:55;;;;;;;7.83;6.00;;;19.50;1.00;;;;;;5034349;28;20174;-76
2023/03/21 09:15:27;;;;;;;7.33;5.70;;;19.80;1.00;;;;;;5032951;28;20173;-74
2023/03/21 09:17:54;;;;;;;7.97;5.20;;;20.20;1.00;;;;;;5034653;28;20188;-76
2023/03/21 09:20:24;;;;;;;7.43;5.10;;;20.00;1.00;;;;;;5038626;28;20456;-74
2023/03/21 09:22:53;;;;;;;9.17;5.13;;;20.00;1.00;;;;;;5028983;28;20954;-76
2023/03/21 09:25:20;;;;;;;7.37;5.40;;;19.00;1.00;;;;;;5032444;28;20930;-75
2023/03/21 09:27:45;;;;;;;7.50;5.23;;;18.50;1.00;;;;;;5028833;28;20437;-76
2023/03/21 09:30:18;;;;;;;6.30;5.47;;;18.10;1.00;;;;;;5029909;28;20473;-74
2023/03/21 09:32:49;;;;;;;9.97;5.77;;;17.90;1.00;;;;;;5029072;28;20300;-76
2023/03/21 09:35:17;;;;;;;6.97;5.10;;;17.80;1.00;;;;;;5030905;28;20877;-75
2023/03/21 09:37:43;;;;;;;9.47;5.30;;;17.60;1.00;;;;;;5031189;28;20441;-76
2023/03/21 09:40:43;;;;;;;8.40;5.60;;;17.40;1.00;;;;;;5033350;28;20494;-75
2023/03/21 09:43:16;;;;;;;7.03;5.60;;;16.90;1.00;;;;;;5002742;28;20194;-76
2023/03/21 09:46:14;;;;;;;9.33;6.67;;;16.80;1.00;;;;;;5031601;28;20441;-76
2023/03/21 09:49:08;;;;;;;7.73;6.90;;;16.60;1.00;;;;;;5032668;28;20500;-73
2023/03/21 09:51:38;;;;;;;6.33;5.50;;;16.60;1.00;;;;;;5030756;28;20433;-74
2023/03/21 09:54:22;;;;;;;7.10;6.23;;;16.90;1.00;;;;;;5028403;28;20551;-75
2023/03/21 09:56:51;;;;;;;8.77;6.17;;;17.20;1.00;;;;;;5028648;28;20436;-76
2023/03/21 09:59:36;;;;;;;7.40;5.33;;;17.60;1.00;;;;;;5031136;28;20621;-74
2023/03/21 10:02:14;;;;;;;9.20;5.30;;;17.70;1.00;;;;;;5026919;28;20535;-73
2023/03/21 10:04:40;;;;;;;6.20;4.40;;;17.30;1.00;;;;;;5032550;28;20483;-76
2023/03/21 10:07:06;;;;;;;7.57;4.87;;;17.00;1.00;;;;;;5027947;28;20511;-75
2023/03/21 10:09:33;;;;;;;9.13;4.33;;;17.30;1.00;;;;;;5028819;28;20205;-74
2023/03/21 10:12:07;;;;;;;7.03;4.30;;;17.30;1.00;;;;;;5034005;28;20795;-76
2023/03/21 10:14:37;;;;;;;6.10;4.23;;;17.30;1.00;;;;;;5032928;28;20428;-73
2023/03/21 10:17:32;;;;;;;4.90;4.07;;;17.20;1.00;;;;;;5033322;28;20437;-72
2023/03/21 10:20:31;;;;;;;6.47;4.00;;;17.30;1.00;;;;;;5032706;28;20467;-74
2023/03/21 10:23:00;;;;;;;5.63;3.97;;;17.20;1.00;;;;;;5014943;28;20930;-75
2023/03/21 10:25:33;;;;;;;4.77;3.60;;;16.80;1.00;;;;;;5026665;28;20496;-75
2023/03/21 10:28:01;;;;;;;5.50;3.70;;;16.80;1.00;;;;;;5026502;28;20446;-72
2023/03/21 10:30:41;;;;;;;4.40;3.20;;;16.90;1.00;;;;;;5028055;28;20500;-73
2023/03/21 10:33:13;;;;;;;5.17;3.47;;;17.20;1.00;;;;;;5027657;28;20471;-73
2023/03/21 10:35:42;;;;;;;7.13;3.40;;;17.40;1.00;;;;;;5025169;28;20464;-74
2023/03/21 10:38:15;;;;;;;4.33;2.90;;;17.50;1.00;;;;;;5027073;28;20949;-72
2023/03/21 10:40:41;;;;;;;4.63;3.40;;;;;;;;;;5024985;28;20530;-72
2023/03/21 10:43:25;;;;;;;5.17;3.77;;;17.70;1.00;;;;;;5017860;28;20959;-73
2023/03/21 10:45:50;;;;;;;4.60;3.90;;;17.30;1.00;;;;;;5027564;28;20630;-73
2023/03/21 10:48:16;;;;;;;5.33;3.50;;;17.20;1.00;;;;;;5032424;28;20563;-75
2023/03/21 10:50:46;;;;;;;4.43;3.60;;;17.30;1.00;;;;;;5031344;28;20232;-75
2023/03/21 10:53:21;;;;;;;4.63;3.80;;;17.70;1.00;;;;;;5025853;28;20188;-72
2023/03/21 10:55:53;;;;;;;5.30;3.70;;;17.80;1.00;;;;;;5029670;28;20492;-72
2023/03/21 10:58:26;;;;;;;4.77;3.60;;;17.80;1.00;;;;;;5032655;28;20435;-72
2023/03/21 11:00:58;;;;;;;6.57;4.10;;;18.00;1.00;;;;;;5030475;28;20926;-72
2023/03/21 11:03:42;;;;;;;4.30;3.53;;;18.10;1.00;;;;;;5032559;28;20493;-72
2023/03/21 11:06:20;;;;;;;5.60;3.70;;;17.90;1.00;;;;;;5028479;28;20424;-72
2023/03/21 11:09:08;;;;;;;4.97;3.30;;;17.80;1.00;;;;;;5028454;28;20472;-73
2023/03/21 11:11:39;;;;;;;5.17;3.40;;;17.70;1.00;;;;;;5029463;28;20493;-72
2023/03/21 11:14:22;;;;;;;6.50;2.97;;;17.60;1.00;;;;;;5030756;28;20436;-73
2023/03/21 11:16:48;;;;;;;4.37;3.47;;;17.80;1.00;;;;;;5030361;28;20531;-72
2023/03/21 11:19:34;;;;;;;5.50;3.50;;;17.60;1.00;;;;;;5030232;28;20491;-75
2023/03/21 11:22:05;;;;;;;4.60;3.20;;;17.20;1.00;;;;;;5031998;28;20285;-73
2023/03/21 11:24:32;;;;;;;7.23;3.20;;;17.20;1.00;;;;;;5025964;28;20478;-74
2023/03/21 11:26:58;;;;;;;5.13;3.03;;;17.30;1.00;;;;;;5028465;28;20428;-75
2023/03/21 11:29:34;;;;;;;6.73;3.10;;;17.20;1.00;;;;;;5025804;28;20534;-75
2023/03/21 11:32:08;;;;;;;6.07;2.90;;;17.10;1.00;;;;;;5025621;28;20451;-74
2023/03/21 11:34:46;;;;;;;4.40;3.40;;;17.10;1.00;;;;;;5028004;28;20568;-73
2023/03/21 11:37:25;;;;;;;6.33;3.20;;;16.90;1.00;;;;;;5020427;28;20530;-74
2023/03/21 11:40:19;;;;;;;6.60;3.10;;;16.80;1.00;;;;;;5023837;28;20464;-74
2023/03/21 11:42:50;;;;;;;5.33;3.00;;;16.90;1.00;;;;;;5024065;28;20444;-75
2023/03/21 11:45:26;;;;;;;3.43;2.87;;;16.80;1.00;;;;;;5018791;28;20440;-74
2023/03/21 11:47:54;;;;;;;3.90;3.20;;;16.70;1.00;;;;;;5023486;28;20460;-73
2023/03/21 11:50:33;;;;;;;4.13;2.87;;;16.40;1.00;;;;;;5027817;28;20456;-73
2023/03/21 11:53:19;;;;;;;3.23;2.73;;;16.40;1.00;;;;;;5028577;28;20459;-74
2023/03/21 11:56:02;;;;;;;5.63;3.30;;;16.80;1.00;;;;;;5025946;28;20494;-73
2023/03/21 11:58:36;;;;;;;3.40;2.60;;;17.20;1.00;;;;;;5028684;28;20459;-74
2023/03/21 12:01:05;;;;;;;4.60;3.20;;;17.70;1.00;;;;;;5025479;28;20534;-73
2023/03/21 12:03:45;;;;;;;5.13;3.53;;;18.70;1.00;;;;;;5026597;28;20440;-72
2023/03/21 12:06:23;;;;;;;4.37;3.00;;;20.40;1.00;;;;;;5029285;28;20440;-75
2023/03/21 12:09:10;;;;;;;5.13;3.40;;;23.20;1.00;;;;;;5029827;28;20827;-72
2023/03/21 12:11:51;;;;;;;5.20;3.40;;;23.20;1.00;;;;;;5028105;28;20446;-76
2023/03/21 12:14:41;;;;;;;7.27;3.30;;;23.90;1.00;;;;;;5036348;28;20503;-75
2023/03/21 12:17:15;;;;;;;5.40;3.50;;;24.00;1.00;;;;;;5011904;28;20432;-75
2023/03/21 12:19:47;;;;;;;4.80;2.80;;;22.60;1.00;;;;;;5084996;22;20785;-72
2023/03/21 12:22:23;;;;;;;5.27;3.43;;;21.50;1.00;;;;;;5040600;28;20443;-74
2023/03/21 12:24:55;;;;;;;5.33;3.37;;;21.60;1.00;;;;;;5041483;28;20427;-77
2023/03/21 12:28:05;;;;;;;4.70;3.20;;;20.90;1.00;;;;;;5048218;28;20855;-73
2023/03/21 12:30:43;;;;;;;4.80;3.00;;;20.40;1.00;;;;;;5033294;28;20744;-73
2023/03/21 12:33:24;;;;;;;5.63;3.27;;;20.40;1.00;;;;;;5040312;28;20437;-74
2023/03/21 12:35:50;;;;;;;6.80;3.17;;;20.70;1.00;;;;;;5037764;28;20416;-73
2023/03/21 12:38:27;;;;;;;4.87;3.33;;;21.10;1.00;;;;;;5039040;28;20440;-72
2023/03/21 12:40:56;;;;;;;7.53;3.60;;;21.40;1.00;;;;;;5040858;28;20647;-72
2023/03/21 12:43:58;;;;;;;4.00;3.30;;;21.30;1.00;;;;;;5039273;28;20940;-73
2023/03/21 12:46:51;;;;;;;4.97;3.17;;;21.00;1.00;;;;;;4997411;28;20492;-76
2023/03/21 12:49:26;;;;;;;6.57;3.30;;;21.20;1.00;;;;;;5033965;28;20467;-73
2023/03/21 12:52:01;;;;;;;5.07;3.30;;;22.80;1.00;;;;;;5043173;28;20430;-75
2023/03/21 12:54:38;;;;;;;5.57;3.50;;;21.20;1.00;;;;;;5033723;28;20424;-74
2023/03/21 12:57:18;;;;;;;3.90;2.73;;;21.30;1.00;;;;;;5052545;28;20751;-74
2023/03/21 13:00:00;;;;;;;4.80;3.17;;;21.30;1.00;;;;;;5036705;28;20454;-73
2023/03/21 13:02:30;;;;;;;5.93;3.03;;;21.70;1.00;;;;;;5045268;28;20468;-73
2023/03/21 13:05:20;;;;;;;3.67;2.70;;;21.40;1.00;;;;;;5040598;28;20431;-74
2023/03/21 13:08:10;;;;;;;3.03;1.97;;;21.20;1.00;;;;;;5033646;28;20972;-74
2023/03/21 13:10:38;;;;;;;3.80;2.90;;;20.80;1.00;;;;;;5030334;28;20495;-73
2023/03/21 13:13:28;;;;;;;4.70;2.80;;;20.20;1.00;;;;;;5044776;28;20434;-73
2023/03/21 13:16:05;;;;;;;4.20;2.87;;;19.70;1.00;;;;;;5042148;28;20440;-74